メインページ
METAR-TAF:

METAR-TAF

空港 :

イエローナイフ, ノースウェスト準州, カナダ

イエローナイフ空港

緯度: 62-28N, 経度: 114-27W, 海抜: 205m

現時点の気象観測

当レポートは1時間7分前の21:00(UTC)に作成
北東の風 9kt
気温 -24°C
湿度 52%
気圧 1019 hPa
視程: 24.1km
高度18000ftの雲はほとんどない

METAR: CYZF 192100Z 05009KT 15SM FEW180 M24/M31 A3010 RMK AC1 AC TR SLP225

時間: 15:07 (22:07 UTC)

予報

当レポートは4時間29分前の17:38(UTC)に作成
予報は19日の 18時(UTC)から 20日の 18時(UTC)まで有効
北東の風 10kt
視程: 10km
高度10000ftの雲はほとんどない
20日の 01時(UTC)から 20日の 03時(UTC)まで徐々に
東/北東の風 6kt

TAF: CYZF 191738Z 1918/2018 04010KT P6SM FEW100 BECMG 2001/2003 06006KT RMK NXT FCST BY 200000Z

4,000以上の空港の気象観測と天気予報(METAR報とTAF報)

利用可能な観測所は地図上に黄色い丸と赤い丸で示す。

丸の上にカーソルを重ねると観測所名を参照できる。

次にクリックすると気象観測と天気予報を参照できる。

マップの切り替え:黒色「×」印の緑ボタンをクリックして拡大、「-」印の緑ボタンをクリックして縮小、緑色の三角印をクリックして隣りの地図に切り替え


METAR-TAF: